createdAt,value
2019-05-23T00:01:40.881Z,12.03
2019-05-23T00:07:28.569Z,12.67
2019-05-23T00:13:16.954Z,11.37
2019-05-23T00:19:04.299Z,10.10
2019-05-23T00:24:50.468Z,11.47
2019-05-23T00:30:36.949Z,14.33
2019-05-23T00:36:11.945Z,9.90
2019-05-23T00:41:57.666Z,10.47
2019-05-23T00:47:43.151Z,13.33
2019-05-23T00:53:28.234Z,12.13
2019-05-23T00:59:25.994Z,9.70
2019-05-23T01:05:00.043Z,9.57
2019-05-23T01:10:45.424Z,10.20
2019-05-23T01:16:18.022Z,11.67
2019-05-23T01:18:48.038Z,11.47
2019-05-23T01:24:33.683Z,10.00
2019-05-23T01:27:04.691Z,9.13
2019-05-23T01:32:51.317Z,7.03
2019-05-23T01:35:21.437Z,7.17
2019-05-23T01:37:51.085Z,6.67
2019-05-23T01:40:20.522Z,6.80
2019-05-23T01:42:49.296Z,5.10
2019-05-23T01:45:19.458Z,9.23
2019-05-23T01:51:03.568Z,11.50
2019-05-23T01:56:50.316Z,11.07
2019-05-23T01:59:19.277Z,10.53
2019-05-23T02:05:04.667Z,13.20
2019-05-23T02:07:33.010Z,11.50
2019-05-23T02:10:02.093Z,11.97
2019-05-23T02:12:31.734Z,14.40
2019-05-23T02:15:00.572Z,14.27
2019-05-23T02:17:29.527Z,13.87
2019-05-23T02:19:58.202Z,12.87
2019-05-23T02:22:26.769Z,13.27
2019-05-23T02:24:56.773Z,11.80
2019-05-23T02:27:26.782Z,13.33
2019-05-23T02:29:55.616Z,12.20
2019-05-23T02:32:25.661Z,11.43
2019-05-23T02:34:54.798Z,10.07
2019-05-23T02:37:25.165Z,13.00
2019-05-23T02:39:55.604Z,11.23
2019-05-23T02:42:26.677Z,13.07
2019-05-23T02:44:56.743Z,10.40
2019-05-23T02:50:32.116Z,12.17
2019-05-23T02:53:02.120Z,9.77
2019-05-23T02:55:33.602Z,10.70
2019-05-23T02:58:03.665Z,9.53
2019-05-23T03:00:50.756Z,11.10
2019-05-23T03:06:19.585Z,10.67
2019-05-23T03:08:49.078Z,11.53
2019-05-23T03:11:19.505Z,11.10
2019-05-23T03:17:05.495Z,11.10
2019-05-23T03:19:36.911Z,11.03
2019-05-23T03:25:11.549Z,9.37
2019-05-23T03:31:25.006Z,11.73
2019-05-23T03:33:28.073Z,10.20
2019-05-23T03:39:13.017Z,11.63
2019-05-23T03:44:57.815Z,10.37
2019-05-23T03:50:44.237Z,9.80
2019-05-23T03:56:29.023Z,11.70
2019-05-23T03:58:58.655Z,13.77
2019-05-23T04:01:46.287Z,10.87
2019-05-23T04:07:15.951Z,11.83
2019-05-23T04:09:45.272Z,11.67
2019-05-23T04:15:42.766Z,10.40
2019-05-23T04:18:11.257Z,11.17
2019-05-23T04:20:40.817Z,9.77
2019-05-23T04:26:24.725Z,12.65
2019-05-23T04:32:09.847Z,14.20
2019-05-23T04:34:39.019Z,12.27
2019-05-23T04:40:13.290Z,12.23
2019-05-23T04:45:58.514Z,12.70
2019-05-23T04:48:28.073Z,14.75
2019-05-23T04:54:12.737Z,12.55
2019-05-23T04:59:57.437Z,15.20
2019-05-23T05:05:43.384Z,14.93
2019-05-23T05:08:12.468Z,14.20
2019-05-23T05:10:43.042Z,13.63
2019-05-23T05:13:11.896Z,14.97
2019-05-23T05:15:40.530Z,14.15
2019-05-23T05:18:08.992Z,11.88
2019-05-23T05:23:42.640Z,16.55
2019-05-23T05:29:26.373Z,13.18
2019-05-23T05:31:55.037Z,14.70
2019-05-23T05:34:23.660Z,16.97
2019-05-23T05:40:09.948Z,12.93
2019-05-23T05:45:53.797Z,14.05
2019-05-23T05:48:22.337Z,15.15
2019-05-23T05:54:07.286Z,16.00
2019-05-23T05:56:36.009Z,16.30
2019-05-23T05:59:04.449Z,16.95
2019-05-23T06:01:34.612Z,18.07
2019-05-23T06:04:03.410Z,17.15
2019-05-23T06:06:33.405Z,19.77
2019-05-23T06:09:03.498Z,17.27
2019-05-23T06:11:32.277Z,18.25
2019-05-23T06:14:00.807Z,17.75
2019-05-23T06:16:29.290Z,15.08
2019-05-23T06:18:58.388Z,15.20
2019-05-23T06:21:28.378Z,14.00
2019-05-23T06:23:57.165Z,15.05
2019-05-23T06:26:25.715Z,14.45
2019-05-23T06:28:54.856Z,17.07
2019-05-23T06:31:23.371Z,13.98
2019-05-23T06:33:52.631Z,15.28
2019-05-23T06:36:21.906Z,14.15
2019-05-23T06:38:51.267Z,15.10
2019-05-23T06:41:20.553Z,12.25
2019-05-23T06:43:48.989Z,15.75
2019-05-23T06:46:17.411Z,15.18
2019-05-23T06:48:46.243Z,15.20
2019-05-23T06:51:14.708Z,14.00
2019-05-23T06:53:43.168Z,13.68
2019-05-23T06:56:13.209Z,14.47
2019-05-23T06:58:41.705Z,14.73
2019-05-23T07:01:10.360Z,13.55
2019-05-23T07:03:42.944Z,14.87
2019-05-23T07:06:09.163Z,14.35
2019-05-23T07:08:37.599Z,12.70
2019-05-23T07:11:06.117Z,14.78
2019-05-23T07:13:35.048Z,14.55
2019-05-23T07:16:04.669Z,13.43
2019-05-23T07:18:33.109Z,13.35
2019-05-23T07:21:01.637Z,13.55
2019-05-23T07:23:30.437Z,13.45
2019-05-23T07:25:58.881Z,12.82
2019-05-23T07:28:27.347Z,13.28
2019-05-23T07:30:56.668Z,12.18
2019-05-23T07:33:25.024Z,16.12
2019-05-23T07:35:53.707Z,16.55
2019-05-23T07:38:22.230Z,15.53
2019-05-23T07:40:50.740Z,14.47
2019-05-23T07:43:20.533Z,14.75
2019-05-23T07:45:50.815Z,13.93
2019-05-23T07:48:19.277Z,13.28
2019-05-23T07:50:47.779Z,14.38
2019-05-23T07:53:17.847Z,14.18
2019-05-23T07:55:48.137Z,13.58
2019-05-23T07:58:17.381Z,12.47
2019-05-23T08:00:47.395Z,14.73
2019-05-23T08:03:17.086Z,15.98
2019-05-23T08:05:46.331Z,15.03
2019-05-23T08:08:14.847Z,15.58
2019-05-23T08:10:43.394Z,16.42
2019-05-23T08:13:11.801Z,15.00
2019-05-23T08:15:40.604Z,17.80
2019-05-23T08:18:09.217Z,15.20
2019-05-23T08:20:38.249Z,15.18
2019-05-23T08:23:06.844Z,17.07
2019-05-23T08:25:35.225Z,17.70
2019-05-23T08:28:04.808Z,16.57
2019-05-23T08:30:34.006Z,18.70
2019-05-23T08:33:02.872Z,19.23
2019-05-23T08:35:31.426Z,19.90
2019-05-23T08:38:00.311Z,20.65
2019-05-23T08:40:30.114Z,22.82
2019-05-23T08:42:58.942Z,22.05
2019-05-23T08:45:27.374Z,22.48
2019-05-23T08:47:55.869Z,23.07
2019-05-23T08:50:24.959Z,23.60
2019-05-23T08:52:53.415Z,21.90
2019-05-23T08:55:22.781Z,25.00
2019-05-23T08:57:52.051Z,24.35
2019-05-23T09:00:22.819Z,25.48
2019-05-23T09:02:51.712Z,23.92
2019-05-23T09:05:21.495Z,28.38
2019-05-23T09:07:50.251Z,27.85
2019-05-23T09:10:18.857Z,26.85
2019-05-23T09:12:47.753Z,28.92
2019-05-23T09:15:16.550Z,28.55
2019-05-23T09:17:53.221Z,28.12
2019-05-23T09:20:16.631Z,26.40
2019-05-23T09:22:45.421Z,29.72
2019-05-23T09:25:15.487Z,29.32
2019-05-23T09:27:44.382Z,31.57
2019-05-23T09:30:13.571Z,31.00
2019-05-23T09:32:43.081Z,31.30
2019-05-23T09:35:20.818Z,31.62
2019-05-23T09:37:44.319Z,31.23
2019-05-23T09:40:12.988Z,31.02
2019-05-23T09:42:41.623Z,32.80
2019-05-23T09:45:10.193Z,29.12
2019-05-23T09:47:38.825Z,32.42
2019-05-23T09:50:10.513Z,31.97
2019-05-23T09:52:39.122Z,29.70
2019-05-23T09:55:08.143Z,30.40
2019-05-23T09:57:36.533Z,32.67
2019-05-23T10:00:08.086Z,31.75
2019-05-23T10:02:36.870Z,30.40
2019-05-23T10:05:07.069Z,31.37
2019-05-23T10:07:35.549Z,31.37
2019-05-23T10:10:05.502Z,29.77
2019-05-23T10:12:33.867Z,32.98
2019-05-23T10:15:02.304Z,34.67
2019-05-23T10:17:31.493Z,33.60
2019-05-23T10:20:00.019Z,28.50
2019-05-23T10:22:28.592Z,35.33
2019-05-23T10:24:57.391Z,34.38
2019-05-23T10:27:25.744Z,29.82
2019-05-23T10:29:54.097Z,29.30
2019-05-23T10:32:22.841Z,28.83
2019-05-23T10:34:51.287Z,29.72
2019-05-23T10:37:20.052Z,36.23
2019-05-23T10:39:50.010Z,29.60
2019-05-23T10:42:19.011Z,27.05
2019-05-23T10:44:47.526Z,31.05
2019-05-23T10:47:19.109Z,11.90
2019-05-23T10:49:48.668Z,14.00
2019-05-23T10:52:18.256Z,6.15
2019-05-23T10:54:46.861Z,14.58
2019-05-23T10:57:15.459Z,10.63
2019-05-23T10:59:44.835Z,12.07
2019-05-23T11:02:13.540Z,13.87
2019-05-23T11:04:42.335Z,16.50
2019-05-23T11:07:11.621Z,13.73
2019-05-23T11:09:40.088Z,18.63
2019-05-23T11:12:15.514Z,24.40
2019-05-23T11:14:44.351Z,32.80
2019-05-23T11:17:13.672Z,36.43
2019-05-23T11:19:42.410Z,32.58
2019-05-23T11:22:11.948Z,29.43
2019-05-23T11:24:40.710Z,31.55
2019-05-23T11:27:09.629Z,29.92
2019-05-23T11:29:38.306Z,27.10
2019-05-23T11:32:09.109Z,29.30
2019-05-23T11:34:38.315Z,18.73
2019-05-23T11:37:07.030Z,26.50
2019-05-23T11:39:42.075Z,31.42
2019-05-23T11:42:06.821Z,27.35
2019-05-23T11:44:35.429Z,25.97
2019-05-23T11:47:04.591Z,32.50
2019-05-23T11:49:33.109Z,25.70
2019-05-23T11:52:01.910Z,18.23
2019-05-23T11:54:31.311Z,33.30
2019-05-23T11:56:59.989Z,25.30
2019-05-23T11:59:28.869Z,24.70
2019-05-23T12:01:59.181Z,28.45
2019-05-23T12:04:28.224Z,25.50
2019-05-23T12:06:58.469Z,18.50
2019-05-23T12:09:27.484Z,22.58
2019-05-23T12:11:56.153Z,30.43
2019-05-23T12:14:24.708Z,34.90
2019-05-23T12:16:53.566Z,33.53
2019-05-23T12:19:22.621Z,38.83
2019-05-23T12:21:51.191Z,30.17
2019-05-23T12:24:19.890Z,32.23
2019-05-23T12:26:48.446Z,68.33
2019-05-23T12:29:17.221Z,61.05
2019-05-23T12:31:49.094Z,33.60
2019-05-23T12:34:16.219Z,42.93
2019-05-23T12:36:44.760Z,31.37
2019-05-23T12:39:13.463Z,34.08
2019-05-23T12:41:43.498Z,31.37
2019-05-23T12:44:17.800Z,32.53
2019-05-23T12:46:45.832Z,32.67
2019-05-23T12:49:17.158Z,60.00
2019-05-23T12:51:46.028Z,34.03
2019-05-23T12:54:14.524Z,30.97
2019-05-23T12:56:48.627Z,28.52
2019-05-23T12:59:15.009Z,28.52
2019-05-23T13:01:45.074Z,26.27
2019-05-23T13:04:15.286Z,25.88
2019-05-23T13:06:44.351Z,26.77
2019-05-23T13:09:12.887Z,25.52
2019-05-23T13:11:42.101Z,29.82
2019-05-23T13:14:11.101Z,25.70
2019-05-23T13:16:39.661Z,26.45
2019-05-23T13:19:08.089Z,25.15
2019-05-23T13:21:37.683Z,26.68
2019-05-23T13:27:22.145Z,26.10
2019-05-23T13:29:50.644Z,26.65
2019-05-23T13:32:19.302Z,27.05
2019-05-23T13:34:48.067Z,24.37
2019-05-23T13:37:17.578Z,22.15
2019-05-23T13:39:46.180Z,23.83
2019-05-23T13:42:15.306Z,25.30
2019-05-23T13:44:46.269Z,25.85
2019-05-23T13:47:15.013Z,25.72
2019-05-23T13:49:43.787Z,22.25
2019-05-23T13:52:12.792Z,22.13
2019-05-23T13:54:41.545Z,26.23
2019-05-23T13:57:11.440Z,24.55
2019-05-23T13:59:40.064Z,24.20
2019-05-23T14:02:08.867Z,21.87
2019-05-23T14:04:37.547Z,23.32
2019-05-23T14:07:07.675Z,24.77
2019-05-23T14:09:37.964Z,24.05
2019-05-23T14:12:20.632Z,24.20
2019-05-23T14:14:36.892Z,25.52
2019-05-23T14:20:23.990Z,24.87
2019-05-23T14:22:54.019Z,24.45
2019-05-23T14:25:23.512Z,25.62
2019-05-23T14:27:54.369Z,25.62
2019-05-23T14:30:24.363Z,25.85
2019-05-23T14:32:54.341Z,25.72
2019-05-23T14:35:24.473Z,26.05
2019-05-23T14:37:54.950Z,24.72
2019-05-23T14:40:23.541Z,25.43
2019-05-23T14:42:53.872Z,23.55
2019-05-23T14:45:24.271Z,25.12
2019-05-23T14:47:54.660Z,22.80
2019-05-23T14:50:23.143Z,24.32
2019-05-23T14:52:53.228Z,22.50
2019-05-23T14:55:22.815Z,22.30
2019-05-23T14:57:52.741Z,21.55
2019-05-23T15:00:22.830Z,22.85
2019-05-23T15:02:51.601Z,20.40
2019-05-23T15:05:20.908Z,22.80
2019-05-23T15:07:49.354Z,21.60
2019-05-23T15:10:19.661Z,24.65
2019-05-23T15:12:48.101Z,21.35
2019-05-23T15:15:17.899Z,22.27
2019-05-23T15:17:46.387Z,21.75
2019-05-23T15:20:15.229Z,20.37
2019-05-23T15:22:43.960Z,23.97
2019-05-23T15:25:12.781Z,20.43
2019-05-23T15:27:41.260Z,20.10
2019-05-23T15:30:10.632Z,21.73
2019-05-23T15:32:39.063Z,21.73
2019-05-23T15:35:07.715Z,20.75
2019-05-23T15:37:36.582Z,21.12
2019-05-23T15:40:05.893Z,20.27
2019-05-23T15:42:34.502Z,18.23
2019-05-23T15:45:03.174Z,17.98
2019-05-23T15:47:33.385Z,19.48
2019-05-23T15:50:08.374Z,16.80
2019-05-23T15:52:35.118Z,20.12
2019-05-23T15:55:05.783Z,19.23
2019-05-23T15:57:35.760Z,17.75
2019-05-23T16:00:06.771Z,20.45
2019-05-23T16:02:37.003Z,20.90
2019-05-23T16:05:07.870Z,21.75
2019-05-23T16:07:36.274Z,22.37
2019-05-23T16:10:07.387Z,21.50
2019-05-23T16:12:35.973Z,22.85
2019-05-23T16:15:06.138Z,22.65
2019-05-23T16:17:34.580Z,23.70
2019-05-23T16:20:03.306Z,22.87
2019-05-23T16:22:32.100Z,25.77
2019-05-23T16:25:02.142Z,23.00
2019-05-23T16:27:31.062Z,25.90
2019-05-23T16:29:59.712Z,25.30
2019-05-23T16:32:28.491Z,24.47
2019-05-23T16:34:57.081Z,21.77
2019-05-23T16:37:25.650Z,22.23
2019-05-23T16:39:54.189Z,18.20
2019-05-23T16:42:23.091Z,22.10
2019-05-23T16:44:51.548Z,19.93
2019-05-23T16:47:20.372Z,20.62
2019-05-23T16:49:48.737Z,21.73
2019-05-23T16:52:17.200Z,23.62
2019-05-23T16:54:47.388Z,21.60
2019-05-23T16:57:15.529Z,21.37
2019-05-23T16:59:45.599Z,23.35
2019-05-23T17:02:15.689Z,22.13
2019-05-23T17:04:45.735Z,21.20
2019-05-23T17:07:15.879Z,19.33
2019-05-23T17:10:06.121Z,20.20
2019-05-23T17:12:17.656Z,21.30
2019-05-23T17:14:51.554Z,23.30
2019-05-23T17:17:38.052Z,24.63
2019-05-23T17:19:51.678Z,24.63
2019-05-23T17:22:21.745Z,23.13
2019-05-23T17:24:52.213Z,23.80
2019-05-23T17:27:22.422Z,23.57
2019-05-23T17:29:52.549Z,23.60
2019-05-23T17:32:22.653Z,27.00
2019-05-23T17:34:51.306Z,25.27
2019-05-23T17:37:21.780Z,24.77
2019-05-23T17:39:53.249Z,26.80
2019-05-23T17:42:20.264Z,26.10
2019-05-23T17:44:48.779Z,25.47
2019-05-23T17:47:17.530Z,29.17
2019-05-23T17:49:46.215Z,28.00
2019-05-23T17:52:16.259Z,27.83
2019-05-23T17:54:44.946Z,26.55
2019-05-23T17:57:13.369Z,27.85
2019-05-23T17:59:41.796Z,25.90
2019-05-23T18:02:11.087Z,25.93
2019-05-23T18:04:39.681Z,28.57
2019-05-23T18:07:08.356Z,26.50
2019-05-23T18:09:37.047Z,27.70
2019-05-23T18:12:07.122Z,24.30
2019-05-23T18:14:36.483Z,24.12
2019-05-23T18:20:21.232Z,26.97
2019-05-23T18:22:49.867Z,26.82
2019-05-23T18:25:19.458Z,26.60
2019-05-23T18:27:47.928Z,30.37
2019-05-23T18:30:17.976Z,31.20
2019-05-23T18:32:47.135Z,28.62
2019-05-23T18:35:15.671Z,29.50
2019-05-23T18:37:44.563Z,28.90
2019-05-23T18:40:14.162Z,30.35
2019-05-23T18:42:44.379Z,27.70
2019-05-23T18:45:13.438Z,27.80
2019-05-23T18:47:42.931Z,27.87
2019-05-23T18:50:13.263Z,29.63
2019-05-23T18:52:42.280Z,27.00
2019-05-23T18:55:14.198Z,28.23
2019-05-23T18:57:42.768Z,29.20
2019-05-23T19:00:11.364Z,27.10
2019-05-23T19:02:40.450Z,29.43
2019-05-23T19:05:10.231Z,25.67
2019-05-23T19:07:40.565Z,27.13
2019-05-23T19:10:11.604Z,25.00
2019-05-23T19:12:41.749Z,23.80
2019-05-23T19:15:10.404Z,28.05
2019-05-23T19:17:40.162Z,28.95
2019-05-23T19:20:08.802Z,24.52
2019-05-23T19:22:38.922Z,28.33
2019-05-23T19:25:09.448Z,27.25
2019-05-23T19:27:37.883Z,25.93
2019-05-23T19:33:22.870Z,26.30
2019-05-23T19:35:51.424Z,26.40
2019-05-23T19:38:22.671Z,26.37
2019-05-23T19:40:53.754Z,25.80
2019-05-23T19:43:24.363Z,24.90
2019-05-23T19:45:53.679Z,26.65
2019-05-23T19:48:22.555Z,26.10
2019-05-23T19:50:51.806Z,22.82
2019-05-23T19:53:20.330Z,24.70
2019-05-23T19:55:53.460Z,25.43
2019-05-23T19:58:26.802Z,24.93
2019-05-23T20:00:56.687Z,25.20
2019-05-23T20:03:25.291Z,23.77
2019-05-23T20:05:55.279Z,23.53
2019-05-23T20:08:23.985Z,24.50
2019-05-23T20:10:52.570Z,23.33
2019-05-23T20:13:21.371Z,23.53
2019-05-23T20:15:49.893Z,23.57
2019-05-23T20:18:18.834Z,24.47
2019-05-23T20:20:52.501Z,23.20
2019-05-23T20:23:22.636Z,23.23
2019-05-23T20:25:51.251Z,21.73
2019-05-23T20:28:19.740Z,25.30
2019-05-23T20:30:49.652Z,22.30
2019-05-23T20:33:18.175Z,22.10
2019-05-23T20:35:46.607Z,21.67
2019-05-23T20:38:15.009Z,21.87
2019-05-23T20:40:43.651Z,22.10
2019-05-23T20:43:13.187Z,21.10
2019-05-23T20:45:41.850Z,19.13
2019-05-23T20:48:10.930Z,21.37
2019-05-23T20:50:39.365Z,19.57
2019-05-23T20:53:07.931Z,20.70
2019-05-23T20:55:36.488Z,21.33
2019-05-23T20:58:05.365Z,19.25
2019-05-23T21:00:35.677Z,18.50
2019-05-23T21:03:04.544Z,21.10
2019-05-23T21:05:32.991Z,19.63
2019-05-23T21:08:02.612Z,19.40
2019-05-23T21:10:32.588Z,20.87
2019-05-23T21:13:01.231Z,19.82
2019-05-23T21:15:29.654Z,21.20
2019-05-23T21:17:58.754Z,19.83
2019-05-23T21:20:27.254Z,21.00
2019-05-23T21:22:55.741Z,19.70
2019-05-23T21:25:24.353Z,20.10
2019-05-23T21:27:52.746Z,19.50
2019-05-23T21:30:21.220Z,18.60
2019-05-23T21:32:49.660Z,18.47
2019-05-23T21:35:18.129Z,18.33
2019-05-23T21:37:46.655Z,22.03
2019-05-23T21:40:17.379Z,18.90
2019-05-23T21:42:47.999Z,18.53
2019-05-23T21:45:15.885Z,21.30
2019-05-23T21:51:00.175Z,16.53
2019-05-23T21:53:28.593Z,18.30
2019-05-23T21:55:57.069Z,16.60
2019-05-23T21:58:25.524Z,17.80
2019-05-23T22:00:55.208Z,15.47
2019-05-23T22:03:24.144Z,15.43
2019-05-23T22:05:52.691Z,19.10
2019-05-23T22:11:38.630Z,15.57
2019-05-23T22:14:07.131Z,14.87
2019-05-23T22:16:35.683Z,17.27
2019-05-23T22:19:06.496Z,16.67
2019-05-23T22:21:34.951Z,15.23
2019-05-23T22:24:03.421Z,14.73
2019-05-23T22:26:31.943Z,16.33
2019-05-23T22:29:00.650Z,15.57
2019-05-23T22:31:29.562Z,12.33
2019-05-23T22:34:00.020Z,16.27
2019-05-23T22:36:28.422Z,14.43
2019-05-23T22:38:56.772Z,16.03
2019-05-23T22:41:25.313Z,13.97
2019-05-23T22:43:53.779Z,17.30
2019-05-23T22:46:23.704Z,16.50
2019-05-23T22:48:53.255Z,17.00
2019-05-23T22:51:21.698Z,14.70
2019-05-23T22:53:50.258Z,15.87
2019-05-23T22:56:18.850Z,13.03
2019-05-23T22:58:47.287Z,15.43
2019-05-23T23:01:15.931Z,14.17
2019-05-23T23:03:44.342Z,15.47
2019-05-23T23:06:13.145Z,14.37
2019-05-23T23:08:41.571Z,13.60
2019-05-23T23:11:10.548Z,13.43
2019-05-23T23:13:40.410Z,15.00
2019-05-23T23:16:09.267Z,12.47
2019-05-23T23:18:37.703Z,13.77
2019-05-23T23:21:06.149Z,11.03
2019-05-23T23:23:34.564Z,12.00
2019-05-23T23:26:03.078Z,12.53
2019-05-23T23:28:31.588Z,12.40
2019-05-23T23:31:00.085Z,11.57
2019-05-23T23:33:28.573Z,13.07
2019-05-23T23:35:56.972Z,12.70
2019-05-23T23:38:25.460Z,12.77
2019-05-23T23:40:53.841Z,13.10
2019-05-23T23:43:22.229Z,12.73
2019-05-23T23:45:52.373Z,14.13
2019-05-23T23:48:22.510Z,13.17
2019-05-23T23:50:52.719Z,12.23
2019-05-23T23:53:22.850Z,12.83
2019-05-23T23:55:53.576Z,12.47
2019-05-23T23:58:21.667Z,12.80
